Time;durP1;ratioP1;P1;durP2;ratioP2;P2;SDS_P1;SDS_P2;PMS_P1;PMS_P2;Temp;Humidity;BMP_temperature;BMP_pressure;BME280_temperature;BME280_humidity;BME280_pressure;Samples;Min_cycle;Max_cycle;Signal;HPM_P1;HPM_P2
2022/11/28 00:01:17;;;;;;;46.13;43.20;;;;;;;5.46;100.00;101492.88;5071694;28;20516;-46
2022/11/28 00:03:44;;;;;;;44.30;41.03;;;;;;;5.47;100.00;101496.31;5070698;28;20818;-46
2022/11/28 00:06:12;;;;;;;42.77;40.07;;;;;;;5.45;100.00;101490.34;5071511;28;20469;-47
2022/11/28 00:08:40;;;;;;;46.30;42.57;;;;;;;5.41;100.00;101484.50;5071438;28;20470;-47
2022/11/28 00:11:09;;;;;;;46.33;42.60;;;;;;;5.44;100.00;101499.25;5071634;28;20820;-47
2022/11/28 00:13:37;;;;;;;44.77;41.90;;;;;;;5.44;100.00;101488.69;5070675;28;20449;-47
2022/11/28 00:16:08;;;;;;;45.23;41.90;;;;;;;5.46;100.00;101484.09;5071307;28;20926;-48
2022/11/28 00:18:36;;;;;;;44.70;42.00;;;;;;;5.44;100.00;101486.03;5071334;28;20479;-46
2022/11/28 00:21:05;;;;;;;46.30;42.90;;;;;;;5.41;100.00;101475.75;5071202;28;20941;-48
2022/11/28 00:23:34;;;;;;;44.03;41.10;;;;;;;5.37;100.00;101467.28;5070733;28;20435;-46
2022/11/28 00:26:04;;;;;;;47.03;43.47;;;;;;;5.43;100.00;101484.38;5071420;28;20445;-46
2022/11/28 00:28:32;;;;;;;45.80;42.10;;;;;;;5.42;100.00;101456.25;5071270;28;20477;-47
2022/11/28 00:31:00;;;;;;;44.87;41.57;;;;;;;5.37;100.00;101451.41;5071244;28;20434;-46
2022/11/28 00:33:30;;;;;;;46.90;43.30;;;;;;;5.37;100.00;101454.06;5070343;28;20435;-46
2022/11/28 00:35:58;;;;;;;45.87;42.70;;;;;;;5.40;100.00;101480.22;5071189;28;20462;-46
2022/11/28 00:38:26;;;;;;;48.30;43.80;;;;;;;5.44;100.00;101470.16;5099725;23;20903;-48
2022/11/28 00:40:59;;;;;;;45.70;41.80;;;;;;;5.47;100.00;101475.16;5082142;28;20479;-49
2022/11/28 00:43:27;;;;;;;45.80;42.60;;;;;;;5.47;100.00;101468.06;5070914;28;20448;-49
2022/11/28 00:45:55;;;;;;;47.13;43.73;;;;;;;5.46;100.00;101461.13;5070236;28;20453;-46
2022/11/28 00:48:23;;;;;;;46.40;42.80;;;;;;;5.45;100.00;101443.59;5070876;28;20450;-48
2022/11/28 00:50:53;;;;;;;46.40;43.07;;;;;;;5.44;100.00;101443.72;5085461;28;20436;-47
2022/11/28 00:53:20;;;;;;;44.10;41.20;;;;;;;5.43;100.00;101440.25;5091019;28;20425;-48
2022/11/28 00:55:48;;;;;;;46.37;43.10;;;;;;;5.43;100.00;101442.91;5090452;28;20465;-51
2022/11/28 00:58:16;;;;;;;45.53;42.47;;;;;;;5.43;100.00;101440.25;5090966;28;20449;-45
2022/11/28 01:00:43;;;;;;;44.83;41.70;;;;;;;5.45;100.00;101448.03;5092497;28;20443;-50
2022/11/28 01:03:11;;;;;;;45.13;41.53;;;;;;;5.46;100.00;101431.19;5094432;28;20439;-47
2022/11/28 01:05:42;;;;;;;46.00;42.47;;;;;;;5.46;100.00;101439.97;5094397;28;20464;-49
2022/11/28 01:08:11;;;;;;;46.33;42.70;;;;;;;5.45;100.00;101437.44;5094595;28;20854;-50
2022/11/28 01:10:41;;;;;;;43.83;41.33;;;;;;;5.45;100.00;101435.66;5094559;28;20473;-48
2022/11/28 01:13:09;;;;;;;45.10;41.97;;;;;;;5.48;100.00;101438.00;5094280;28;20425;-47
2022/11/28 01:15:39;;;;;;;43.90;41.00;;;;;;;5.50;100.00;101443.97;5094114;28;20462;-48
2022/11/28 01:18:07;;;;;;;43.87;40.67;;;;;;;5.51;100.00;101429.78;5094493;28;20449;-50
2022/11/28 01:20:35;;;;;;;44.87;41.80;;;;;;;5.54;100.00;101433.94;5094387;28;20498;-50
2022/11/28 01:23:02;;;;;;;45.20;42.37;;;;;;;5.54;100.00;101420.69;5094292;28;20494;-47
2022/11/28 01:25:32;;;;;;;43.87;40.83;;;;;;;5.53;100.00;101416.38;5093470;28;20464;-50
2022/11/28 01:27:59;;;;;;;45.23;41.27;;;;;;;5.53;100.00;101414.56;5094139;28;20457;-48
2022/11/28 01:30:27;;;;;;;43.30;40.40;;;;;;;5.54;100.00;101410.13;5094218;28;20461;-49
2022/11/28 01:32:55;;;;;;;45.50;41.80;;;;;;;5.53;100.00;101409.28;5094256;28;20437;-47
2022/11/28 01:35:22;;;;;;;43.03;40.13;;;;;;;5.54;100.00;101410.94;5093403;28;20461;-46
2022/11/28 01:37:50;;;;;;;46.07;42.17;;;;;;;5.54;100.00;101402.19;5093888;28;20444;-50
2022/11/28 01:40:17;;;;;;;44.90;41.50;;;;;;;5.54;100.00;101403.03;5094382;28;20418;-47
2022/11/28 01:42:46;;;;;;;42.53;40.03;;;;;;;5.57;100.00;101401.88;5094127;28;20433;-50
2022/11/28 01:45:19;;;;;;;41.10;38.50;;;;;;;5.56;100.00;101401.03;5093169;28;20506;-49
2022/11/28 01:47:47;;;;;;;44.23;41.03;;;;;;;5.53;100.00;101393.41;5093979;28;20491;-50
2022/11/28 01:50:16;;;;;;;43.47;40.40;;;;;;;5.52;100.00;101388.28;5093734;28;20469;-47
2022/11/28 01:52:48;;;;;;;43.77;40.67;;;;;;;5.52;100.00;101385.63;5093585;28;20421;-47
2022/11/28 01:55:20;;;;;;;44.53;41.53;;;;;;;5.51;100.00;101387.44;5093075;28;20972;-49
2022/11/28 01:57:52;;;;;;;42.57;39.87;;;;;;;5.49;100.00;101372.69;5093765;28;20421;-49
2022/11/28 02:00:21;;;;;;;42.47;39.33;;;;;;;5.50;100.00;101369.91;5093857;28;20430;-46
2022/11/28 02:02:52;;;;;;;42.40;39.70;;;;;;;5.52;100.00;101373.25;5093569;28;20789;-48
2022/11/28 02:05:21;;;;;;;43.90;40.70;;;;;;;5.52;100.00;101367.13;5092899;28;20986;-47
2022/11/28 02:07:50;;;;;;;42.90;40.20;;;;;;;5.53;100.00;101360.81;5093277;28;20425;-48
2022/11/28 02:10:23;;;;;;;41.80;38.37;;;;;;;5.51;100.00;101366.28;5093569;28;20473;-50
2022/11/28 02:13:04;;;;;;;42.00;39.30;;;;;;;5.48;100.00;101353.34;5093587;28;20801;-52
2022/11/28 02:15:43;;;;;;;41.87;39.17;;;;;;;5.49;100.00;101347.09;5092578;28;20461;-46
2022/11/28 02:18:26;;;;;;;42.93;40.33;;;;;;;5.49;100.00;101338.31;5093376;28;20444;-48
2022/11/28 02:21:18;;;;;;;40.50;38.10;;;;;;;5.47;100.00;101349.03;5093350;28;20960;-47
2022/11/28 02:24:22;;;;;;;42.20;39.27;;;;;;;5.48;100.00;101348.06;5092410;28;20437;-48
2022/11/28 02:27:06;;;;;;;41.07;38.43;;;;;;;5.49;100.00;101338.31;5090574;28;20437;-50
2022/11/28 02:30:01;;;;;;;43.00;39.90;;;;;;;5.48;100.00;101334.00;5093000;28;20870;-52
2022/11/28 02:32:38;;;;;;;42.97;39.50;;;;;;;5.48;100.00;101328.69;5093271;28;20414;-52
2022/11/28 02:35:11;;;;;;;41.07;38.57;;;;;;;5.45;100.00;101331.66;5092291;28;20494;-47
2022/11/28 02:37:47;;;;;;;41.83;39.23;;;;;;;5.46;100.00;101314.81;5092766;28;20429;-48
2022/11/28 02:40:23;;;;;;;40.73;38.33;;;;;;;5.42;100.00;101308.97;5093047;28;20935;-44
2022/11/28 02:43:02;;;;;;;42.30;39.60;;;;;;;5.41;100.00;101314.41;5092727;28;20432;-44
2022/11/28 02:45:36;;;;;;;40.27;38.07;;;;;;;5.38;100.00;101306.75;5092338;28;20453;-43
2022/11/28 02:48:11;;;;;;;40.40;37.80;;;;;;;5.38;100.00;101304.94;5092777;28;20444;-43
2022/11/28 02:50:44;;;;;;;42.00;39.27;;;;;;;5.39;100.00;101296.03;5092759;28;20471;-46
2022/11/28 02:53:16;;;;;;;42.83;39.80;;;;;;;5.36;100.00;101295.50;5092388;28;20475;-51
2022/11/28 02:55:44;;;;;;;43.33;40.53;;;;;;;5.33;100.00;101287.88;5092243;28;20507;-48
2022/11/28 02:58:12;;;;;;;41.03;38.47;;;;;;;5.29;100.00;101266.19;5092497;28;20971;-47
2022/11/28 03:00:43;;;;;;;41.40;38.70;;;;;;;5.30;100.00;101267.84;5092746;28;20452;-47
2022/11/28 03:03:28;;;;;;;41.40;38.90;;;;;;;5.30;100.00;101261.72;5092483;28;20946;-47
2022/11/28 03:06:01;;;;;;;42.53;39.40;;;;;;;5.33;100.00;101256.97;5092307;28;20911;-47
2022/11/28 03:08:42;;;;;;;39.83;37.33;;;;;;;5.34;100.00;101255.16;5092708;28;20441;-50
2022/11/28 03:11:20;;;;;;;42.03;39.03;;;;;;;5.31;100.00;101251.00;5092599;28;20465;-45
2022/11/28 03:13:56;;;;;;;41.83;38.93;;;;;;;5.33;100.00;101253.50;5091469;28;20446;-47
2022/11/28 03:16:28;;;;;;;42.30;39.70;;;;;;;5.35;100.00;101251.53;5092128;28;20927;-47
2022/11/28 03:19:09;;;;;;;39.57;37.30;;;;;;;5.32;100.00;101246.53;5092104;28;20975;-44
2022/11/28 03:21:40;;;;;;;40.47;37.67;;;;;;;5.35;100.00;101248.88;5092182;28;20421;-45
2022/11/28 03:24:15;;;;;;;41.43;39.10;;;;;;;5.40;100.00;101246.63;5091059;28;20847;-44
2022/11/28 03:26:49;;;;;;;40.20;37.97;;;;;;;5.41;100.00;101233.25;5092279;28;20432;-43
2022/11/28 03:29:21;;;;;;;41.37;38.87;;;;;;;5.42;100.00;101234.09;5091918;28;20980;-44
2022/11/28 03:31:53;;;;;;;40.87;38.53;;;;;;;5.44;100.00;101226.81;5091977;28;20476;-46
2022/11/28 03:34:28;;;;;;;39.77;37.27;;;;;;;5.47;100.00;101242.38;5091241;28;20461;-45
2022/11/28 03:37:00;;;;;;;40.07;37.77;;;;;;;5.49;100.00;101224.56;5091774;28;20429;-50
2022/11/28 03:39:32;;;;;;;39.20;36.80;;;;;;;5.48;100.00;101215.78;5091692;28;21006;-46
2022/11/28 03:42:07;;;;;;;40.70;38.30;;;;;;;5.53;100.00;101217.97;5091965;28;20430;-44
2022/11/28 03:44:39;;;;;;;39.20;37.10;;;;;;;5.53;100.00;101221.44;5091184;28;20460;-44
2022/11/28 03:47:08;;;;;;;40.47;37.97;;;;;;;5.55;100.00;101211.53;5091788;28;20766;-45
2022/11/28 03:49:40;;;;;;;39.50;37.30;;;;;;;5.56;100.00;101210.56;5091641;28;20813;-48
2022/11/28 03:52:11;;;;;;;40.40;38.10;;;;;;;5.54;100.00;101220.47;5091922;28;20421;-44
2022/11/28 03:54:46;;;;;;;39.73;37.63;;;;;;;5.54;100.00;101227.56;5090976;28;20464;-43
2022/11/28 03:57:24;;;;;;;39.67;37.47;;;;;;;5.59;100.00;101222.66;5083620;28;20416;-49
2022/11/28 03:59:53;;;;;;;41.47;39.20;;;;;;;5.62;100.00;101229.44;5091524;28;20460;-43
2022/11/28 04:02:29;;;;;;;39.50;36.90;;;;;;;5.61;100.00;101217.22;5091498;28;20429;-44
2022/11/28 04:05:02;;;;;;;40.10;37.70;;;;;;;5.62;100.00;101216.22;5091059;28;20891;-45
2022/11/28 04:07:37;;;;;;;39.90;37.50;;;;;;;5.61;100.00;101210.13;5091627;28;20429;-45
2022/11/28 04:10:12;;;;;;;39.10;36.90;;;;;;;5.65;100.00;101221.19;5091395;28;20815;-44
2022/11/28 04:12:50;;;;;;;39.53;37.20;;;;;;;5.65;100.00;101216.75;5091706;28;20780;-45
2022/11/28 04:15:27;;;;;;;39.47;37.27;;;;;;;5.66;100.00;101205.19;5090932;28;20894;-44
2022/11/28 04:18:01;;;;;;;39.37;37.03;;;;;;;5.67;100.00;101206.88;5091428;28;20453;-45
2022/11/28 04:20:36;;;;;;;40.33;37.93;;;;;;;5.66;100.00;101215.78;5091345;28;20440;-48
2022/11/28 04:23:09;;;;;;;39.50;37.40;;;;;;;5.65;100.00;101214.09;5091390;28;20915;-47
2022/11/28 04:25:40;;;;;;;40.17;37.67;;;;;;;5.69;100.00;101217.28;5091076;28;20484;-47
2022/11/28 04:28:13;;;;;;;39.13;36.73;;;;;;;5.66;100.00;101205.19;5091349;28;20846;-44
2022/11/28 04:30:43;;;;;;;39.63;37.40;;;;;;;5.67;100.00;101200.75;5091306;28;20473;-44
2022/11/28 04:33:13;;;;;;;40.37;37.87;;;;;;;5.65;100.00;101185.00;5090999;28;20507;-50
2022/11/28 04:35:48;;;;;;;39.97;37.47;;;;;;;5.66;100.00;101184.03;5092683;28;20835;-46
2022/11/28 04:38:17;;;;;;;39.97;37.47;;;;;;;5.61;100.00;101165.16;5095303;28;20465;-44
2022/11/28 04:40:50;;;;;;;41.13;38.63;;;;;;;5.61;100.00;101175.72;5095372;28;20429;-44
2022/11/28 04:43:23;;;;;;;39.50;37.20;;;;;;;5.64;100.00;101175.41;5094133;28;20846;-46
2022/11/28 04:45:56;;;;;;;39.97;37.60;;;;;;;5.68;100.00;101175.91;5093599;28;20820;-49
2022/11/28 04:48:24;;;;;;;41.07;38.67;;;;;;;5.66;100.00;101177.91;5094681;28;20536;-47
2022/11/28 04:51:06;;;;;;;41.60;38.70;;;;;;;5.67;100.00;101175.13;5094916;28;20469;-45
2022/11/28 04:53:39;;;;;;;40.27;37.63;;;;;;;5.70;100.00;101188.03;5094043;28;20459;-46
2022/11/28 04:56:13;;;;;;;39.97;37.67;;;;;;;5.72;100.00;101188.69;5093617;28;20440;-44
2022/11/28 04:58:45;;;;;;;40.93;38.60;;;;;;;5.71;100.00;101191.50;5094881;28;20441;-43
2022/11/28 05:01:18;;;;;;;41.17;38.63;;;;;;;5.72;100.00;101185.22;5094764;28;20422;-45
2022/11/28 05:03:46;;;;;;;38.70;36.60;;;;;;;5.70;100.00;101189.84;5094110;28;20443;-50
2022/11/28 05:06:25;;;;;;;39.70;37.60;;;;;;;5.68;100.00;101195.28;5094560;28;20421;-48
2022/11/28 05:08:52;;;;;;;40.97;38.30;;;;;;;5.64;100.00;101193.94;5094455;28;20466;-44
2022/11/28 05:11:20;;;;;;;41.03;38.60;;;;;;;5.67;100.00;101195.44;5094658;28;20882;-47
2022/11/28 05:13:48;;;;;;;39.63;37.53;;;;;;;5.68;100.00;101205.84;5094113;28;20805;-48
2022/11/28 05:16:16;;;;;;;39.67;37.57;;;;;;;5.68;100.00;101219.09;5094376;28;20430;-44
2022/11/28 05:18:44;;;;;;;40.10;37.20;;;;;;;5.66;100.00;101213.13;5094247;28;20445;-48
2022/11/28 05:21:12;;;;;;;39.37;37.10;;;;;;;5.64;100.00;101212.47;5094492;28;20433;-48
2022/11/28 05:23:42;;;;;;;39.90;37.37;;;;;;;5.65;100.00;101203.53;5093929;28;20432;-45
2022/11/28 05:26:13;;;;;;;39.17;36.97;;;;;;;5.65;100.00;101215.91;5094468;28;20437;-43
2022/11/28 05:28:43;;;;;;;38.37;36.07;;;;;;;5.66;100.00;101222.88;5094312;28;20495;-47
2022/11/28 05:31:11;;;;;;;39.33;36.93;;;;;;;5.70;100.00;101232.19;5094329;28;20466;-46
2022/11/28 05:33:39;;;;;;;40.43;38.13;;;;;;;5.71;100.00;101231.19;5093566;28;20436;-46
2022/11/28 05:36:09;;;;;;;39.83;37.50;;;;;;;5.71;100.00;101239.94;5094277;28;20433;-45
2022/11/28 05:38:41;;;;;;;40.17;37.60;;;;;;;5.74;100.00;101233.53;5094122;28;20809;-47
2022/11/28 05:41:10;;;;;;;39.90;37.33;;;;;;;5.70;100.00;101235.66;5093894;28;20426;-44
2022/11/28 05:43:37;;;;;;;39.80;37.60;;;;;;;5.72;100.00;101233.69;5093375;28;20433;-45
2022/11/28 05:46:06;;;;;;;39.20;36.90;;;;;;;5.71;100.00;101242.59;5093453;28;20480;-49
2022/11/28 05:48:33;;;;;;;40.67;38.03;;;;;;;5.68;100.00;101240.25;5093946;28;20456;-47
2022/11/28 05:51:03;;;;;;;39.03;36.80;;;;;;;5.69;100.00;101241.09;5093811;28;20481;-49
2022/11/28 05:53:31;;;;;;;39.40;37.17;;;;;;;5.66;100.00;101242.22;5093035;28;20928;-48
2022/11/28 05:56:05;;;;;;;38.60;36.60;;;;;;;5.64;100.00;101224.84;5093579;28;20433;-49
2022/11/28 05:58:33;;;;;;;41.70;39.30;;;;;;;5.64;100.00;101227.50;5093472;28;20467;-49
2022/11/28 06:01:09;;;;;;;40.73;38.33;;;;;;;5.62;100.00;101230.28;5093685;28;20425;-48
2022/11/28 06:03:37;;;;;;;41.13;38.83;;;;;;;5.61;100.00;101233.09;5093191;28;20428;-49
2022/11/28 06:06:08;;;;;;;41.40;38.83;;;;;;;5.61;100.00;101241.88;5093486;28;20504;-44
2022/11/28 06:08:35;;;;;;;39.63;37.30;;;;;;;5.62;100.00;101240.03;5093644;28;20976;-47
2022/11/28 06:11:04;;;;;;;39.77;37.57;;;;;;;5.65;100.00;101243.22;5093115;28;20433;-43
2022/11/28 06:13:32;;;;;;;40.50;38.20;;;;;;;5.65;100.00;101250.31;5092822;28;20460;-47
2022/11/28 06:16:00;;;;;;;40.30;38.10;;;;;;;5.62;100.00;101246.16;5093636;28;20421;-45
2022/11/28 06:18:28;;;;;;;39.80;37.60;;;;;;;5.66;100.00;101250.19;5093276;28;20532;-45
2022/11/28 06:20:55;;;;;;;41.10;38.60;;;;;;;5.64;100.00;101243.38;5093196;28;20943;-49
2022/11/28 06:23:23;;;;;;;40.10;37.80;;;;;;;5.61;100.00;101239.22;5093163;28;20794;-46
2022/11/28 06:25:51;;;;;;;40.37;38.00;;;;;;;5.58;100.00;101234.25;5093077;28;20464;-49
2022/11/28 06:28:20;;;;;;;43.10;40.30;;;;;;;5.55;100.00;101232.69;5093677;28;20445;-49
2022/11/28 06:30:47;;;;;;;39.57;37.37;;;;;;;5.53;100.00;101242.63;5093889;28;20433;-47
2022/11/28 06:33:15;;;;;;;40.87;38.10;;;;;;;5.54;100.00;101228.41;5093321;28;20466;-47
2022/11/28 06:35:42;;;;;;;40.53;38.10;;;;;;;5.54;100.00;101236.34;5093130;28;20475;-46
2022/11/28 06:38:10;;;;;;;40.97;38.30;;;;;;;5.55;100.00;101238.00;5093402;28;20469;-46
2022/11/28 06:40:41;;;;;;;39.17;36.93;;;;;;;5.51;100.00;101233.16;5093737;28;20435;-48
2022/11/28 06:43:08;;;;;;;39.97;37.40;;;;;;;5.53;100.00;101232.03;5086057;22;20557;-42
2022/11/28 06:45:37;;;;;;;39.73;37.23;;;;;;;5.54;100.00;101228.41;5067186;28;20462;-47
2022/11/28 06:48:05;;;;;;;39.60;37.00;;;;;;;5.51;100.00;101234.00;5072660;28;20437;-45
2022/11/28 06:50:33;;;;;;;40.50;37.77;;;;;;;5.51;100.00;101234.00;5072347;28;20434;-45
2022/11/28 06:53:01;;;;;;;42.53;40.10;;;;;;;5.48;100.00;101222.91;5072229;28;20489;-44
2022/11/28 06:55:29;;;;;;;41.07;38.33;;;;;;;5.46;100.00;101222.22;5062585;28;20463;-46
2022/11/28 06:57:57;;;;;;;42.53;40.03;;;;;;;5.42;100.00;101211.13;5051817;28;20474;-44
2022/11/28 07:00:25;;;;;;;41.33;38.93;;;;;;;5.44;100.00;101203.84;5052786;28;20431;-44
2022/11/28 07:02:54;;;;;;;40.93;38.53;;;;;;;5.41;100.00;101205.97;5052274;28;20456;-45
2022/11/28 07:05:21;;;;;;;40.87;38.27;;;;;;;5.38;100.00;101201.81;5051600;28;21040;-45
2022/11/28 07:07:49;;;;;;;41.40;39.13;;;;;;;5.37;100.00;101205.47;5052547;28;20439;-44
2022/11/28 07:10:22;;;;;;;44.77;42.27;;;;;;;5.36;100.00;101202.94;5052396;28;20462;-46
2022/11/28 07:12:53;;;;;;;40.73;38.07;;;;;;;5.39;100.00;101210.59;5052121;28;20479;-46
2022/11/28 07:15:21;;;;;;;39.77;37.40;;;;;;;5.36;100.00;101210.88;5051878;28;20826;-46
2022/11/28 07:17:48;;;;;;;42.70;39.90;;;;;;;5.32;100.00;101212.16;5052120;28;20477;-45
2022/11/28 07:20:18;;;;;;;42.37;40.07;;;;;;;5.31;100.00;101221.94;5052344;28;20435;-48
2022/11/28 07:22:47;;;;;;;43.23;40.33;;;;;;;5.32;100.00;101212.16;5052206;28;20803;-44
2022/11/28 07:25:15;;;;;;;41.33;38.73;;;;;;;5.31;100.00;101221.09;5051534;28;20460;-46
2022/11/28 07:27:44;;;;;;;41.33;38.70;;;;;;;5.34;100.00;101229.56;5052070;28;20509;-47
2022/11/28 07:30:12;;;;;;;41.93;39.73;;;;;;;5.36;100.00;101240.81;5052017;28;20435;-45
2022/11/28 07:32:40;;;;;;;44.50;41.50;;;;;;;5.35;100.00;101233.00;5052209;28;20830;-46
2022/11/28 07:35:08;;;;;;;42.10;39.70;;;;;;;5.37;100.00;101228.41;5051211;28;20474;-46
2022/11/28 07:37:37;;;;;;;42.10;39.70;;;;;;;5.39;100.00;101231.75;5051794;28;20946;-47
2022/11/28 07:40:06;;;;;;;45.33;42.17;;;;;;;5.42;100.00;101229.63;5051875;28;20435;-46
2022/11/28 07:42:34;;;;;;;43.77;41.00;;;;;;;5.46;100.00;101236.28;5051508;28;20459;-48
2022/11/28 07:45:01;;;;;;;43.80;41.30;;;;;;;5.47;100.00;101227.34;5051097;28;20482;-45
2022/11/28 07:47:29;;;;;;;43.40;40.70;;;;;;;5.47;100.00;101234.44;5051781;28;20430;-48
2022/11/28 07:49:57;;;;;;;43.70;41.00;;;;;;;5.49;100.00;101243.09;5051673;28;20435;-47
2022/11/28 07:52:24;;;;;;;41.90;39.50;;;;;;;5.46;100.00;101243.38;5051534;28;20475;-47
2022/11/28 07:54:53;;;;;;;42.07;39.37;;;;;;;5.48;100.00;101239.59;5050775;28;20900;-46
2022/11/28 07:57:21;;;;;;;43.10;40.30;;;;;;;5.49;100.00;101235.16;5051279;28;20431;-47
2022/11/28 07:59:48;;;;;;;42.50;40.10;;;;;;;5.47;100.00;101245.03;5051819;28;20431;-47
2022/11/28 08:02:16;;;;;;;42.83;40.20;;;;;;;5.54;100.00;101238.16;5051550;28;20455;-46
2022/11/28 08:04:44;;;;;;;42.30;39.37;;;;;;;5.56;100.00;101233.53;5050990;28;20572;-45
2022/11/28 08:07:19;;;;;;;42.47;39.77;;;;;;;5.59;100.00;101260.53;5051786;28;20437;-46
2022/11/28 08:09:47;;;;;;;43.03;40.33;;;;;;;5.62;100.00;101251.44;5053240;28;20942;-47
2022/11/28 08:12:16;;;;;;;42.93;40.20;;;;;;;5.65;100.00;101240.56;5055636;28;20467;-46
2022/11/28 08:14:43;;;;;;;42.80;40.00;;;;;;;5.69;100.00;101241.94;5055101;28;20514;-46
2022/11/28 08:17:11;;;;;;;42.93;40.33;;;;;;;5.73;100.00;101242.47;5055629;28;20439;-46
2022/11/28 08:19:39;;;;;;;42.90;40.17;;;;;;;5.72;100.00;101238.16;5055479;28;20850;-47
2022/11/28 08:22:06;;;;;;;44.23;41.60;;;;;;;5.76;100.00;101240.34;5055505;28;20854;-45
2022/11/28 08:24:34;;;;;;;43.53;40.80;;;;;;;5.80;100.00;101244.31;5054517;28;20466;-46
2022/11/28 08:27:01;;;;;;;43.30;40.53;;;;;;;5.76;100.00;101240.34;5055202;28;20442;-45
2022/11/28 08:29:31;;;;;;;44.10;41.40;;;;;;;5.74;100.00;101239.66;5055175;28;20439;-44
2022/11/28 08:31:58;;;;;;;44.63;41.90;;;;;;;5.68;100.00;101232.31;5055366;28;20454;-45
2022/11/28 08:34:26;;;;;;;43.83;40.70;;;;;;;5.64;100.00;101230.97;5054666;28;20463;-46
2022/11/28 08:36:53;;;;;;;43.63;41.00;;;;;;;5.65;100.00;101221.19;5055162;28;20431;-46
2022/11/28 08:39:21;;;;;;;43.67;40.70;;;;;;;5.68;100.00;101228.84;5055459;28;20934;-46
2022/11/28 08:41:51;;;;;;;43.90;41.13;;;;;;;5.70;100.00;101218.94;5055210;28;20469;-48
2022/11/28 08:44:19;;;;;;;43.17;40.57;;;;;;;5.72;100.00;101224.91;5054444;28;20466;-46
2022/11/28 08:46:48;;;;;;;42.87;40.13;;;;;;;5.75;100.00;101240.47;5055027;28;20829;-48
2022/11/28 08:49:15;;;;;;;42.10;39.40;;;;;;;5.78;100.00;101233.06;5054764;28;20443;-46
2022/11/28 08:51:43;;;;;;;42.57;39.90;;;;;;;5.79;100.00;101239.19;5054697;28;20458;-45
2022/11/28 08:54:11;;;;;;;41.63;39.03;;;;;;;5.79;100.00;101252.44;5054462;28;20466;-44
2022/11/28 08:56:39;;;;;;;43.40;40.50;;;;;;;5.84;100.00;101255.44;5054720;28;20435;-46
2022/11/28 08:59:06;;;;;;;43.80;40.73;;;;;;;5.86;100.00;101250.84;5054778;28;20439;-43
2022/11/28 09:01:34;;;;;;;43.87;40.73;;;;;;;5.93;100.00;101263.34;5054571;28;20459;-48
2022/11/28 09:04:04;;;;;;;41.83;39.13;;;;;;;5.88;100.00;101260.31;5054159;28;20837;-48
2022/11/28 09:06:31;;;;;;;43.13;40.53;;;;;;;5.89;100.00;101258.47;5055268;28;20442;-51
2022/11/28 09:09:00;;;;;;;41.93;38.90;;;;;;;5.97;100.00;101267.31;5054644;28;20443;-47
2022/11/28 09:11:28;;;;;;;41.70;39.27;;;;;;;5.98;100.00;101269.00;5054530;28;20815;-46
2022/11/28 09:13:55;;;;;;;42.30;39.70;;;;;;;6.04;100.00;101265.72;5053749;28;20463;-49
2022/11/28 09:16:23;;;;;;;41.87;39.47;;;;;;;6.09;100.00;101265.28;5054241;28;20435;-47
2022/11/28 09:18:51;;;;;;;42.90;40.10;;;;;;;6.17;100.00;101265.31;5054537;28;20833;-49
2022/11/28 09:21:20;;;;;;;46.80;42.90;;;;;;;6.16;100.00;101268.13;5054082;28;20446;-45
2022/11/28 09:23:48;;;;;;;44.10;41.17;;;;;;;6.13;100.00;101270.09;5053776;28;20517;-49
2022/11/28 09:26:18;;;;;;;45.27;42.30;;;;;;;6.16;100.00;101270.75;5054205;28;20926;-47
2022/11/28 09:28:46;;;;;;;44.53;41.43;;;;;;;6.20;100.00;101275.59;5054211;28;20420;-46
2022/11/28 09:31:15;;;;;;;43.53;40.63;;;;;;;6.22;100.00;101270.13;5054046;28;20432;-47
2022/11/28 09:33:43;;;;;;;44.30;41.50;;;;;;;6.21;100.00;101268.50;5053631;28;20475;-46
2022/11/28 09:36:13;;;;;;;43.17;40.40;;;;;;;6.25;100.00;101267.19;5054124;28;20485;-47
2022/11/28 09:38:42;;;;;;;45.70;42.87;;;;;;;6.24;100.00;101260.25;5054196;28;20427;-46
2022/11/28 09:41:40;;;;;;;44.17;41.30;;;;;;;6.29;100.00;101260.59;5054073;28;20433;-50
2022/11/28 09:44:15;;;;;;;44.00;41.30;;;;;;;6.24;100.00;101253.13;5053496;28;20455;-48
2022/11/28 09:46:44;;;;;;;42.87;40.23;;;;;;;6.28;100.00;101259.75;5054182;28;20431;-50
2022/11/28 09:49:23;;;;;;;43.27;40.27;;;;;;;6.25;100.00;101262.72;5053946;28;20938;-47
2022/11/28 09:51:56;;;;;;;43.97;40.77;;;;;;;6.20;100.00;101259.72;5053618;28;20439;-46
2022/11/28 09:54:36;;;;;;;43.50;40.90;;;;;;;6.26;100.00;101267.03;5053008;28;20463;-45
2022/11/28 09:57:12;;;;;;;44.30;41.30;;;;;;;6.32;100.00;101273.53;5053588;28;20931;-45
2022/11/28 09:59:40;;;;;;;43.40;40.47;;;;;;;6.29;100.00;101264.09;5053772;28;20968;-49
2022/11/28 10:02:22;;;;;;;42.43;39.73;;;;;;;6.24;100.00;101257.59;5053666;28;20498;-49
2022/11/28 10:05:03;;;;;;;44.70;41.90;;;;;;;6.20;100.00;101251.78;5053027;28;20467;-47
2022/11/28 10:07:43;;;;;;;43.27;40.40;;;;;;;6.15;100.00;101248.78;5053687;28;20530;-47
2022/11/28 10:10:22;;;;;;;44.07;40.43;;;;;;;6.06;100.00;101245.22;5053771;28;20801;-48
2022/11/28 10:13:00;;;;;;;43.30;40.70;;;;;;;6.04;100.00;101235.75;5053579;28;20435;-50
2022/11/28 10:15:39;;;;;;;43.97;40.90;;;;;;;5.96;100.00;101230.41;5052847;28;20462;-48
2022/11/28 10:18:23;;;;;;;43.60;40.43;;;;;;;5.94;100.00;101235.06;5053612;28;20430;-46
2022/11/28 10:20:56;;;;;;;41.97;39.17;;;;;;;5.90;100.00;101237.16;5053308;28;20847;-47
2022/11/28 10:23:28;;;;;;;43.23;40.03;;;;;;;5.91;100.00;101241.47;5053107;28;20503;-45
2022/11/28 10:26:02;;;;;;;44.10;40.80;;;;;;;5.94;100.00;101240.34;5052832;28;20473;-44
2022/11/28 10:28:34;;;;;;;43.40;40.10;;;;;;;5.98;100.00;101247.81;5053152;28;20436;-46
2022/11/28 10:31:06;;;;;;;43.60;40.90;;;;;;;6.00;100.00;101242.38;5053202;28;20435;-48
2022/11/28 10:33:41;;;;;;;42.73;40.10;;;;;;;5.99;100.00;101246.84;5050706;28;20471;-46
2022/11/28 10:36:15;;;;;;;43.00;40.13;;;;;;;5.92;100.00;101240.47;5053333;28;20449;-46
2022/11/28 10:38:42;;;;;;;44.53;41.53;;;;;;;5.93;100.00;101250.09;5052861;28;20427;-45
2022/11/28 10:41:17;;;;;;;43.13;40.30;;;;;;;5.86;100.00;101256.16;5052973;28;20944;-49
2022/11/28 10:43:51;;;;;;;45.00;41.97;;;;;;;5.85;100.00;101258.00;5051870;28;20446;-45
2022/11/28 10:46:31;;;;;;;46.27;43.10;;;;;;;5.83;100.00;101262.56;5052905;28;20435;-44
2022/11/28 10:49:08;;;;;;;43.47;40.33;;;;;;;5.77;100.00;101255.22;5053080;28;20500;-48
2022/11/28 10:51:48;;;;;;;44.17;41.17;;;;;;;5.76;100.00;101264.16;5052737;28;20447;-45
2022/11/28 10:54:25;;;;;;;43.43;40.67;;;;;;;5.68;100.00;101263.22;5051760;28;20467;-47
2022/11/28 10:57:06;;;;;;;45.97;42.67;;;;;;;5.67;100.00;101264.25;5049589;28;20473;-46
2022/11/28 10:59:48;;;;;;;45.40;42.40;;;;;;;5.69;100.00;101260.44;5052698;28;20489;-46
2022/11/28 11:02:21;;;;;;;45.17;41.97;;;;;;;5.70;100.00;101256.00;5052589;28;20451;-48
2022/11/28 11:04:48;;;;;;;44.13;40.93;;;;;;;5.74;100.00;101255.53;5051945;28;20467;-47
2022/11/28 11:07:24;;;;;;;44.63;41.70;;;;;;;5.68;100.00;101257.94;5052544;28;20432;-45
2022/11/28 11:09:57;;;;;;;44.37;41.07;;;;;;;5.69;100.00;101259.63;5052313;28;20492;-48
2022/11/28 11:12:30;;;;;;;44.77;41.53;;;;;;;5.67;100.00;101261.59;5052565;28;20451;-47
2022/11/28 11:14:58;;;;;;;43.77;40.93;;;;;;;5.67;100.00;101259.78;5051580;28;20483;-46
2022/11/28 11:17:31;;;;;;;44.37;41.37;;;;;;;5.68;100.00;101258.78;5052219;28;20514;-43
2022/11/28 11:20:25;;;;;;;45.63;42.13;;;;;;;5.61;100.00;101257.75;5052479;28;20446;-46
2022/11/28 11:22:55;;;;;;;46.33;43.13;;;;;;;5.55;100.00;101251.22;5051977;28;20443;-46
2022/11/28 11:25:25;;;;;;;45.37;41.87;;;;;;;5.59;100.00;101254.41;5051689;28;20458;-45
2022/11/28 11:27:56;;;;;;;44.33;41.43;;;;;;;5.57;100.00;101253.72;5052010;28;20432;-45